Time;durP1;ratioP1;P1;durP2;ratioP2;P2;SDS_P1;SDS_P2;PMS_P1;PMS_P2;Temp;Humidity;BMP_temperature;BMP_pressure;BME280_temperature;BME280_humidity;BME280_pressure;Samples;Min_cycle;Max_cycle;Signal;HPM_P1;HPM_P2
2022/09/08 00:00:26;;;;;;;3.47;3.20;;;18.50;99.90;;;;;;4983971;28;20188;-72
2022/09/08 00:02:52;;;;;;;4.93;2.93;;;18.50;99.90;;;;;;4986763;28;20238;-71
2022/09/08 00:05:22;;;;;;;5.63;3.20;;;18.50;99.90;;;;;;4985540;28;20241;-73
2022/09/08 00:07:49;;;;;;;2.67;2.47;;;18.50;99.90;;;;;;4986510;28;20470;-71
2022/09/08 00:10:15;;;;;;;2.90;2.80;;;18.50;99.90;;;;;;4985280;28;20529;-72
2022/09/08 00:12:41;;;;;;;3.27;2.93;;;18.50;99.90;;;;;;4985811;28;20830;-73
2022/09/08 00:15:08;;;;;;;3.97;3.33;;;18.40;99.90;;;;;;4987239;28;20648;-72
2022/09/08 00:17:33;;;;;;;3.43;3.13;;;18.40;99.90;;;;;;4985453;28;20963;-71
2022/09/08 00:19:59;;;;;;;5.90;3.23;;;18.40;99.90;;;;;;4985446;28;20445;-73
2022/09/08 00:22:24;;;;;;;3.87;3.30;;;18.40;99.90;;;;;;4990310;28;20321;-71
2022/09/08 00:24:50;;;;;;;2.97;2.77;;;18.30;99.90;;;;;;4990113;28;20238;-72
2022/09/08 00:27:15;;;;;;;4.17;3.87;;;18.30;99.90;;;;;;4988733;28;20258;-73
2022/09/08 00:29:41;;;;;;;7.83;4.00;;;18.30;99.90;;;;;;4991872;28;20234;-72
2022/09/08 00:32:06;;;;;;;3.83;3.53;;;18.30;99.90;;;;;;4989249;28;20222;-71
2022/09/08 00:34:34;;;;;;;3.57;3.20;;;18.30;99.90;;;;;;4991970;28;20195;-72
2022/09/08 00:36:59;;;;;;;3.63;3.37;;;18.30;99.90;;;;;;4986936;28;20188;-72
2022/09/08 00:39:25;;;;;;;3.37;3.10;;;18.30;99.90;;;;;;4991360;28;20453;-71
2022/09/08 00:41:51;;;;;;;4.00;3.70;;;18.30;99.90;;;;;;4989167;28;20578;-72
2022/09/08 00:44:37;;;;;;;9.73;3.23;;;18.30;99.90;;;;;;4989876;28;20238;-72
2022/09/08 00:47:05;;;;;;;3.53;2.90;;;18.20;99.90;;;;;;4991452;28;20210;-71
2022/09/08 00:49:32;;;;;;;2.63;2.43;;;18.20;99.90;;;;;;4991237;28;20813;-72
2022/09/08 00:51:58;;;;;;;6.13;2.87;;;18.20;99.90;;;;;;4989320;28;20501;-72
2022/09/08 00:54:25;;;;;;;3.80;3.60;;;18.20;99.90;;;;;;4985947;28;20873;-72
2022/09/08 00:56:53;;;;;;;5.50;3.20;;;18.20;99.90;;;;;;4989460;28;20187;-72
2022/09/08 00:59:20;;;;;;;4.90;3.97;;;18.10;99.90;;;;;;4987108;28;20454;-72
2022/09/08 02:32:23;;;;;;;3.33;3.03;;;18.00;99.90;;;;;;5297568;22;20552;-71
2022/09/08 02:34:48;;;;;;;8.07;2.00;;;18.00;99.90;;;;;;5006264;28;20435;-73
2022/09/08 02:37:14;;;;;;;2.50;2.40;;;18.10;99.90;;;;;;5005948;28;20179;-72
2022/09/08 02:39:39;;;;;;;3.93;2.40;;;18.00;99.90;;;;;;5013945;28;20718;-72
2022/09/08 02:42:06;;;;;;;2.07;1.93;;;18.00;99.90;;;;;;5021822;28;20217;-73
2022/09/08 02:44:32;;;;;;;1.97;1.87;;;18.00;99.90;;;;;;5015933;28;20181;-73
2022/09/08 02:46:57;;;;;;;1.60;1.50;;;18.00;99.90;;;;;;5014202;28;20864;-73
2022/09/08 02:49:23;;;;;;;4.43;2.13;;;18.00;99.90;;;;;;5003836;28;20518;-72
2022/09/08 02:51:49;;;;;;;2.37;2.17;;;17.90;99.90;;;;;;5012939;28;20214;-72
2022/09/08 02:54:15;;;;;;;2.70;1.83;;;17.90;99.90;;;;;;5012919;28;20198;-72
2022/09/08 02:56:40;;;;;;;2.67;1.90;;;17.90;99.90;;;;;;5019591;28;20713;-72
2022/09/08 02:59:06;;;;;;;1.80;1.70;;;17.90;99.90;;;;;;5015366;28;20522;-72
2022/09/08 03:01:31;;;;;;;1.83;1.73;;;17.80;99.90;;;;;;5008502;28;20211;-72
2022/09/08 03:03:57;;;;;;;5.83;1.77;;;17.80;99.90;;;;;;4997468;28;20175;-72
2022/09/08 03:06:22;;;;;;;2.60;1.50;;;17.80;99.90;;;;;;5023466;28;20250;-72
2022/09/08 03:08:49;;;;;;;2.90;1.10;;;17.80;99.90;;;;;;5005372;28;20190;-71
2022/09/08 03:11:16;;;;;;;2.30;1.43;;;17.70;99.90;;;;;;5006170;28;20198;-72
2022/09/08 03:13:41;;;;;;;1.40;1.30;;;17.70;99.90;;;;;;5013649;28;20449;-72
2022/09/08 03:16:07;;;;;;;1.40;1.30;;;17.70;99.90;;;;;;5007422;28;20784;-72
2022/09/08 03:18:33;;;;;;;2.10;1.70;;;17.70;99.90;;;;;;5003766;28;20191;-72
2022/09/08 03:21:08;;;;;;;3.17;1.30;;;17.70;99.90;;;;;;5003343;28;20250;-72
2022/09/08 03:23:35;;;;;;;1.23;1.13;;;17.70;99.90;;;;;;4999816;28;20179;-72
2022/09/08 03:26:12;;;;;;;1.80;1.20;;;17.70;99.90;;;;;;5007040;28;20422;-72
2022/09/08 03:28:38;;;;;;;1.30;1.30;;;17.70;99.90;;;;;;5009069;28;20744;-72
2022/09/08 03:31:09;;;;;;;1.23;1.13;;;17.70;99.90;;;;;;5010663;28;20477;-72
2022/09/08 03:33:36;;;;;;;1.70;1.60;;;17.60;99.90;;;;;;5003583;28;20470;-72
2022/09/08 03:36:03;;;;;;;2.53;1.10;;;17.60;99.90;;;;;;5017318;28;20429;-72
2022/09/08 03:38:29;;;;;;;3.63;1.00;;;17.60;99.90;;;;;;5003947;28;20730;-72
2022/09/08 03:40:55;;;;;;;1.20;1.10;;;17.60;99.90;;;;;;4997029;28;20477;-72
2022/09/08 03:43:20;;;;;;;1.93;1.10;;;17.60;99.90;;;;;;5006062;28;20217;-72
2022/09/08 03:45:46;;;;;;;2.10;1.13;;;17.60;99.90;;;;;;5008499;28;20265;-72
2022/09/08 03:48:14;;;;;;;2.27;1.17;;;17.60;99.90;;;;;;5018072;28;20189;-71
2022/09/08 03:50:39;;;;;;;1.30;0.83;;;17.60;99.90;;;;;;5012142;28;20473;-72
2022/09/08 03:53:05;;;;;;;1.30;1.20;;;17.60;99.90;;;;;;4999291;28;20869;-72
2022/09/08 03:55:31;;;;;;;1.27;1.10;;;17.60;99.90;;;;;;5003308;28;20322;-72
2022/09/08 03:57:58;;;;;;;1.63;1.03;;;17.60;99.90;;;;;;5012753;28;20182;-72
2022/09/08 04:00:24;;;;;;;4.57;1.03;;;17.60;99.90;;;;;;5008126;28;20773;-72
2022/09/08 04:02:49;;;;;;;2.10;1.00;;;17.50;99.90;;;;;;5012895;28;20608;-72
2022/09/08 04:05:15;;;;;;;1.10;1.00;;;17.50;99.90;;;;;;5021777;28;20421;-72
2022/09/08 04:07:40;;;;;;;4.40;1.20;;;17.50;99.90;;;;;;5005817;28;20313;-73
2022/09/08 04:10:11;;;;;;;1.20;1.10;;;17.50;99.90;;;;;;5006610;28;20551;-72
2022/09/08 04:12:38;;;;;;;1.20;1.10;;;17.40;99.90;;;;;;5013302;28;20205;-73
2022/09/08 04:15:05;;;;;;;0.97;0.97;;;17.40;99.90;;;;;;5013399;28;20445;-72
2022/09/08 04:17:31;;;;;;;1.00;0.90;;;17.50;99.90;;;;;;5005056;28;20426;-72
2022/09/08 04:19:57;;;;;;;1.37;0.90;;;17.50;99.90;;;;;;5011719;28;20956;-72
2022/09/08 04:22:23;;;;;;;2.30;1.20;;;17.40;99.90;;;;;;5011236;28;20221;-72
2022/09/08 04:24:49;;;;;;;1.17;1.07;;;17.40;99.90;;;;;;5011461;28;20182;-72
2022/09/08 04:27:16;;;;;;;2.30;1.03;;;17.40;99.90;;;;;;5012021;28;20623;-72
2022/09/08 04:29:42;;;;;;;0.77;0.77;;;17.40;99.90;;;;;;5015216;28;20428;-73
2022/09/08 04:32:08;;;;;;;1.53;1.00;;;17.40;99.90;;;;;;5017599;28;20476;-72
2022/09/08 04:34:34;;;;;;;1.23;1.13;;;17.30;99.90;;;;;;5007086;28;20182;-72
2022/09/08 04:37:00;;;;;;;4.10;1.10;;;17.30;99.90;;;;;;5021429;28;20535;-72
2022/09/08 04:39:26;;;;;;;1.03;0.93;;;17.30;99.90;;;;;;4998138;28;20521;-71
2022/09/08 04:41:52;;;;;;;1.43;0.97;;;17.30;99.90;;;;;;5004394;28;20232;-72
2022/09/08 04:44:18;;;;;;;1.20;0.80;;;17.30;99.90;;;;;;5008012;28;20504;-72
2022/09/08 04:46:43;;;;;;;1.10;0.70;;;17.30;99.90;;;;;;5010233;28;20242;-72
2022/09/08 04:49:09;;;;;;;1.00;1.00;;;17.30;99.90;;;;;;5015326;28;20179;-72
2022/09/08 04:51:34;;;;;;;2.77;1.73;;;17.20;99.90;;;;;;5008543;28;20724;-72
2022/09/08 04:54:01;;;;;;;0.90;0.90;;;17.20;99.90;;;;;;5020693;28;20189;-72
2022/09/08 04:56:28;;;;;;;1.20;1.10;;;17.20;99.90;;;;;;5010279;28;20576;-72
2022/09/08 04:58:54;;;;;;;2.10;1.30;;;17.20;99.90;;;;;;5016306;28;20860;-74
2022/09/08 05:01:24;;;;;;;1.27;0.90;;;17.20;99.90;;;;;;5004211;28;20827;-74
2022/09/08 05:03:51;;;;;;;1.80;1.20;;;17.20;99.90;;;;;;5014428;28;20426;-73
2022/09/08 05:06:18;;;;;;;0.83;0.83;;;17.20;99.90;;;;;;5010443;28;20789;-73
2022/09/08 05:08:45;;;;;;;4.80;1.30;;;17.20;99.90;;;;;;5021611;28;20436;-74
2022/09/08 05:11:12;;;;;;;1.43;1.17;;;17.20;99.90;;;;;;4999257;28;20453;-74
2022/09/08 05:13:38;;;;;;;2.20;1.00;;;17.20;99.90;;;;;;5005570;28;21019;-73
2022/09/08 05:16:10;;;;;;;1.33;1.07;;;17.20;99.90;;;;;;5010905;28;20523;-73
2022/09/08 05:18:36;;;;;;;1.73;0.90;;;17.10;99.90;;;;;;5002127;28;20528;-73
2022/09/08 05:21:02;;;;;;;2.23;1.17;;;17.10;99.90;;;;;;5004370;28;20473;-73
2022/09/08 05:23:28;;;;;;;2.70;1.10;;;17.10;99.90;;;;;;5018831;28;20826;-73
2022/09/08 05:26:02;;;;;;;1.20;1.10;;;17.10;99.90;;;;;;5002809;28;20445;-73
2022/09/08 05:28:29;;;;;;;7.57;1.23;;;17.10;99.90;;;;;;5009056;28;20192;-73
2022/09/08 05:30:56;;;;;;;4.73;1.30;;;17.10;99.90;;;;;;5002621;28;20466;-73
2022/09/08 05:33:22;;;;;;;1.50;1.20;;;17.20;99.90;;;;;;4994321;28;20438;-73
2022/09/08 05:35:48;;;;;;;1.97;1.80;;;17.10;99.90;;;;;;5023582;28;20472;-73
2022/09/08 05:38:14;;;;;;;1.37;1.30;;;17.10;99.90;;;;;;5003584;28;20437;-73
2022/09/08 05:40:39;;;;;;;1.40;1.30;;;17.10;99.90;;;;;;5009565;28;20213;-73
2022/09/08 05:43:05;;;;;;;3.30;1.17;;;17.20;99.90;;;;;;5015750;28;20269;-73
2022/09/08 05:45:31;;;;;;;1.40;1.30;;;17.20;99.90;;;;;;5016342;28;20193;-73
2022/09/08 05:47:57;;;;;;;1.33;1.23;;;17.20;99.90;;;;;;5010759;28;20183;-72
2022/09/08 05:50:22;;;;;;;1.47;1.37;;;17.20;99.90;;;;;;5010477;28;20418;-72
2022/09/08 05:52:48;;;;;;;2.73;1.63;;;17.20;99.90;;;;;;5004012;28;20220;-71
2022/09/08 05:55:14;;;;;;;3.63;1.00;;;17.20;99.90;;;;;;5015908;28;20656;-72
2022/09/08 05:57:40;;;;;;;3.43;1.03;;;17.20;99.90;;;;;;5000982;28;20645;-71
2022/09/08 06:00:07;;;;;;;1.37;1.03;;;17.20;99.90;;;;;;5009184;28;20191;-71
2022/09/08 06:02:33;;;;;;;1.83;1.20;;;17.20;99.90;;;;;;5012002;28;20473;-71
2022/09/08 06:04:59;;;;;;;2.03;1.37;;;17.10;99.90;;;;;;5013903;28;20433;-71
2022/09/08 06:07:25;;;;;;;1.93;1.40;;;17.10;99.90;;;;;;5010468;28;20438;-72
2022/09/08 06:09:51;;;;;;;1.43;0.90;;;17.10;99.90;;;;;;5011362;28;20760;-72
2022/09/08 06:12:17;;;;;;;5.47;1.00;;;17.10;99.90;;;;;;5012594;28;20981;-73
2022/09/08 06:14:42;;;;;;;2.50;0.90;;;17.10;99.90;;;;;;5014936;28;20424;-72
2022/09/08 06:17:08;;;;;;;0.87;0.87;;;17.10;99.90;;;;;;5012224;28;20187;-72
2022/09/08 06:19:34;;;;;;;2.00;1.13;;;17.10;99.90;;;;;;5014861;28;20182;-71
2022/09/08 06:21:59;;;;;;;0.70;0.70;;;17.10;99.90;;;;;;5014102;28;21003;-72
2022/09/08 06:24:25;;;;;;;1.03;0.80;;;17.00;99.90;;;;;;5014391;28;20186;-72
2022/09/08 06:27:10;;;;;;;1.70;0.80;;;17.00;99.90;;;;;;5015100;28;20232;-71
2022/09/08 06:29:53;;;;;;;1.03;0.93;;;17.00;99.90;;;;;;4994355;28;20543;-72
2022/09/08 06:32:46;;;;;;;0.77;0.77;;;17.00;99.90;;;;;;4999465;28;20827;-71
2022/09/08 06:35:23;;;;;;;2.30;0.70;;;16.90;99.90;;;;;;5015137;28;20530;-71
2022/09/08 06:37:53;;;;;;;0.83;0.83;;;16.90;99.90;;;;;;5006162;28;20451;-71
2022/09/08 06:40:32;;;;;;;0.90;0.90;;;16.90;99.90;;;;;;5018826;28;20457;-71
2022/09/08 06:43:20;;;;;;;0.93;0.93;;;16.90;99.90;;;;;;5018072;28;20495;-71
2022/09/08 06:45:49;;;;;;;1.20;0.73;;;16.90;99.90;;;;;;5012424;28;20837;-70
2022/09/08 06:48:15;;;;;;;1.17;1.00;;;16.90;99.90;;;;;;5002649;28;20464;-71
2022/09/08 06:51:18;;;;;;;0.90;0.70;;;16.80;99.90;;;;;;5004674;28;20957;-71
2022/09/08 06:54:10;;;;;;;1.10;0.70;;;16.80;99.90;;;;;;5010302;28;20190;-72
2022/09/08 06:56:53;;;;;;;0.73;0.60;;;16.80;99.90;;;;;;5008751;28;20438;-71
2022/09/08 06:59:48;;;;;;;0.60;0.60;;;16.80;99.90;;;;;;5012086;28;20436;-71
2022/09/08 07:02:40;;;;;;;1.47;0.70;;;16.80;99.90;;;;;;5017635;28;20469;-71
2022/09/08 07:05:34;;;;;;;2.53;0.70;;;16.80;99.90;;;;;;5016136;28;20440;-71
2022/09/08 07:08:29;;;;;;;1.93;0.53;;;16.80;99.90;;;;;;4996070;28;20427;-71
2022/09/08 07:11:01;;;;;;;0.70;0.70;;;16.80;99.90;;;;;;5011494;28;20515;-71
2022/09/08 07:13:39;;;;;;;1.57;0.60;;;16.80;99.90;;;;;;5014225;28;20456;-72
2022/09/08 07:16:07;;;;;;;1.63;1.33;;;16.90;99.90;;;;;;5011451;28;20468;-72
2022/09/08 07:18:58;;;;;;;1.80;0.80;;;16.90;99.90;;;;;;5014830;28;20473;-72
2022/09/08 07:21:52;;;;;;;0.70;0.60;;;16.80;99.90;;;;;;5013292;28;20497;-71
2022/09/08 07:24:23;;;;;;;2.30;0.60;;;16.80;99.90;;;;;;5009379;28;20452;-71
2022/09/08 07:26:59;;;;;;;7.13;0.73;;;16.90;99.90;;;;;;5015313;28;20433;-71
2022/09/08 07:29:43;;;;;;;0.80;0.80;;;16.90;99.90;;;;;;5020386;28;21215;-71
2022/09/08 07:32:16;;;;;;;1.33;0.60;;;17.00;99.90;;;;;;5008694;28;21058;-71
2022/09/08 07:34:49;;;;;;;1.00;0.80;;;17.00;99.90;;;;;;5020675;28;20447;-72
2022/09/08 07:37:37;;;;;;;0.70;0.60;;;17.20;99.90;;;;;;5015991;28;20512;-71
2022/09/08 07:40:19;;;;;;;1.83;0.70;;;17.30;99.90;;;;;;5014476;28;20444;-70
2022/09/08 07:42:56;;;;;;;1.43;0.60;;;17.50;99.90;;;;;;5012702;28;20920;-72
2022/09/08 07:45:39;;;;;;;0.67;0.60;;;17.60;99.90;;;;;;5007441;28;20417;-71
2022/09/08 07:48:32;;;;;;;0.70;0.67;;;17.90;99.90;;;;;;5011958;28;20421;-71
2022/09/08 07:51:14;;;;;;;2.20;0.50;;;18.40;99.90;;;;;;5010483;28;20465;-70
2022/09/08 07:53:57;;;;;;;0.60;0.50;;;19.50;99.90;;;;;;4993054;28;20861;-72
2022/09/08 07:56:48;;;;;;;6.27;0.50;;;20.30;99.90;;;;;;5021308;28;20430;-71
2022/09/08 07:59:24;;;;;;;0.77;0.60;;;20.60;99.90;;;;;;5010380;28;20441;-72
2022/09/08 08:02:27;;;;;;;0.67;0.60;;;20.50;99.90;;;;;;5012853;28;20859;-72
2022/09/08 08:05:07;;;;;;;0.50;0.50;;;20.40;99.90;;;;;;5004256;28;21014;-72
2022/09/08 08:07:45;;;;;;;1.43;0.60;;;20.60;99.90;;;;;;5019320;28;20429;-73
2022/09/08 08:10:13;;;;;;;2.73;0.60;;;20.50;99.90;;;;;;5009818;28;20421;-72
2022/09/08 08:12:49;;;;;;;0.50;0.50;;;20.40;99.90;;;;;;5004527;28;20456;-71
2022/09/08 08:15:44;;;;;;;1.13;0.50;;;20.10;99.90;;;;;;5006240;28;20790;-71
2022/09/08 08:18:09;;;;;;;0.70;0.50;;;20.50;99.90;;;;;;5002751;28;20432;-72
2022/09/08 08:20:47;;;;;;;1.10;0.53;;;21.50;99.90;;;;;;5014337;28;21091;-70
2022/09/08 08:23:58;;;;;;;4.73;0.70;;;22.20;99.90;;;;;;5009862;28;20270;-71
2022/09/08 08:26:33;;;;;;;0.70;0.47;;;23.10;99.90;;;;;;4998850;28;20447;-74
2022/09/08 08:29:24;;;;;;;1.20;0.63;;;23.80;99.90;;;;;;5010050;28;20434;-72
2022/09/08 08:31:56;;;;;;;1.53;0.60;;;24.00;99.90;;;;;;5000125;28;20490;-72
2022/09/08 08:34:27;;;;;;;1.57;0.67;;;24.60;99.90;;;;;;5011887;28;20829;-73
2022/09/08 08:37:00;;;;;;;0.80;0.60;;;24.90;99.90;;;;;;5014469;28;20870;-71
2022/09/08 08:39:27;;;;;;;0.80;0.70;;;25.30;99.90;;;;;;5008729;28;20454;-72
2022/09/08 08:42:10;;;;;;;0.67;0.50;;;25.40;99.90;;;;;;5001360;28;20476;-72
2022/09/08 08:44:58;;;;;;;0.70;0.40;;;25.60;99.90;;;;;;5012116;28;20938;-72
2022/09/08 08:47:41;;;;;;;2.10;0.57;;;25.70;99.90;;;;;;5011419;28;20467;-72
2022/09/08 08:50:36;;;;;;;2.13;0.80;;;26.10;99.90;;;;;;5017011;28;20519;-72
2022/09/08 08:53:05;;;;;;;0.70;0.50;;;26.20;99.90;;;;;;5004177;28;20774;-72
2022/09/08 08:55:45;;;;;;;0.80;0.60;;;26.40;99.90;;;;;;5011101;28;20449;-72
2022/09/08 08:58:36;;;;;;;0.70;0.50;;;25.50;99.90;;;;;;5010052;28;20510;-70
2022/09/08 09:01:13;;;;;;;1.97;0.60;;;24.60;99.90;;;;;;5001054;28;20540;-74
2022/09/08 09:04:18;;;;;;;0.50;0.50;;;24.80;99.90;;;;;;5009893;28;20448;-72
2022/09/08 09:07:30;;;;;;;2.43;0.60;;;24.80;99.90;;;;;;5011000;28;20446;-74
2022/09/08 09:10:17;;;;;;;0.80;0.43;;;25.70;99.90;;;;;;5000319;28;20467;-72
2022/09/08 09:12:55;;;;;;;0.60;0.60;;;25.60;99.90;;;;;;5019597;28;20559;-73
2022/09/08 09:15:39;;;;;;;0.57;0.50;;;25.60;99.90;;;;;;5012533;28;20450;-72
2022/09/08 09:18:26;;;;;;;0.50;0.40;;;24.90;99.90;;;;;;5024659;28;20471;-72
2022/09/08 09:21:01;;;;;;;0.80;0.60;;;24.90;99.90;;;;;;5011064;28;20934;-72
2022/09/08 09:23:35;;;;;;;0.70;0.50;;;24.60;99.90;;;;;;5011433;28;20429;-72
2022/09/08 09:26:04;;;;;;;4.03;0.50;;;25.40;99.90;;;;;;5007456;28;20436;-72
2022/09/08 09:28:45;;;;;;;0.80;0.70;;;26.50;99.90;;;;;;5021831;28;20480;-72
2022/09/08 09:31:48;;;;;;;1.23;0.53;;;27.40;99.90;;;;;;5009917;28;20492;-72
2022/09/08 09:34:16;;;;;;;0.60;0.60;;;26.60;99.90;;;;;;5007830;28;20908;-74
2022/09/08 09:36:47;;;;;;;2.83;0.60;;;26.00;99.90;;;;;;5015215;28;20445;-72
2022/09/08 09:39:24;;;;;;;0.67;0.50;;;25.60;99.90;;;;;;5017476;28;20976;-72
2022/09/08 09:42:21;;;;;;;2.10;0.50;;;25.70;99.90;;;;;;5015080;28;20530;-73
2022/09/08 09:45:25;;;;;;;0.80;0.70;;;25.60;99.90;;;;;;5020784;28;20425;-73
2022/09/08 09:48:30;;;;;;;0.97;0.67;;;24.90;99.90;;;;;;5006462;28;20431;-73
2022/09/08 09:51:13;;;;;;;0.50;0.50;;;24.40;99.90;;;;;;5006738;28;20489;-72
2022/09/08 09:54:00;;;;;;;3.90;0.57;;;25.00;99.90;;;;;;5022991;28;21018;-73
2022/09/08 09:56:29;;;;;;;4.00;0.80;;;24.90;99.90;;;;;;5012537;28;20937;-72
2022/09/08 09:59:37;;;;;;;1.67;1.40;;;24.60;99.90;;;;;;5020963;28;20433;-72
2022/09/08 10:02:20;;;;;;;1.13;0.63;;;24.30;99.90;;;;;;5013678;28;21038;-72
2022/09/08 10:05:10;;;;;;;1.37;0.63;;;24.40;99.90;;;;;;5014958;28;20418;-73
2022/09/08 10:08:07;;;;;;;0.60;0.50;;;24.60;99.90;;;;;;5016096;28;20795;-72
2022/09/08 10:10:56;;;;;;;1.17;0.70;;;24.50;99.90;;;;;;5001575;28;20414;-73
2022/09/08 10:13:24;;;;;;;4.93;0.60;;;24.70;99.90;;;;;;5016630;28;20437;-72
2022/09/08 10:15:59;;;;;;;0.67;0.50;;;24.70;99.90;;;;;;5014798;28;20441;-73
2022/09/08 10:19:02;;;;;;;1.23;0.60;;;24.40;99.90;;;;;;5014401;28;20918;-75
2022/09/08 10:21:43;;;;;;;2.43;0.60;;;24.10;99.90;;;;;;5018056;28;20525;-73
2022/09/08 10:24:33;;;;;;;3.17;0.97;;;23.70;99.90;;;;;;5025161;28;20526;-73
2022/09/08 10:27:10;;;;;;;1.60;0.60;;;23.40;99.90;;;;;;5015099;28;20503;-73
2022/09/08 10:30:03;;;;;;;1.43;0.60;;;23.20;99.90;;;;;;5027087;28;20460;-73
2022/09/08 10:32:47;;;;;;;3.80;0.60;;;23.50;99.90;;;;;;5014030;28;20973;-73
2022/09/08 10:35:38;;;;;;;0.87;0.50;;;23.60;99.90;;;;;;5020699;28;20441;-72
2022/09/08 10:38:37;;;;;;;2.53;0.50;;;23.40;99.90;;;;;;5014113;28;20414;-72
2022/09/08 10:41:12;;;;;;;2.20;0.70;;;23.30;99.90;;;;;;5018108;28;20532;-72
2022/09/08 10:43:37;;;;;;;3.80;0.50;;;23.10;99.90;;;;;;5022589;28;20945;-72
2022/09/08 10:46:09;;;;;;;3.67;0.60;;;23.00;99.90;;;;;;5014013;28;20428;-72
2022/09/08 10:49:10;;;;;;;2.50;0.50;;;22.80;99.90;;;;;;5013536;28;20190;-73
2022/09/08 10:51:39;;;;;;;1.77;0.73;;;22.60;99.90;;;;;;4997631;28;20447;-72
2022/09/08 10:54:19;;;;;;;1.00;0.70;;;22.40;99.90;;;;;;5013698;28;20413;-69
2022/09/08 10:56:47;;;;;;;0.80;0.60;;;22.20;99.90;;;;;;5024912;28;20547;-73
2022/09/08 10:59:12;;;;;;;0.60;0.60;;;22.20;99.90;;;;;;5022100;28;20425;-72
2022/09/08 11:02:15;;;;;;;2.70;0.60;;;22.10;99.90;;;;;;5019325;28;20472;-72
2022/09/08 11:04:59;;;;;;;1.63;0.50;;;21.90;99.90;;;;;;5013572;28;20254;-73
2022/09/08 11:07:51;;;;;;;2.37;0.67;;;21.70;99.90;;;;;;5013692;28;20405;-72
2022/09/08 11:10:22;;;;;;;1.50;0.70;;;21.50;99.90;;;;;;5013247;28;20461;-72
2022/09/08 11:13:00;;;;;;;4.73;0.70;;;21.60;99.90;;;;;;5010463;28;20996;-72
2022/09/08 11:15:45;;;;;;;1.93;0.70;;;21.50;99.90;;;;;;5013258;28;20921;-73
2022/09/08 11:18:28;;;;;;;0.50;0.50;;;21.70;99.90;;;;;;5013400;28;20521;-73
2022/09/08 11:21:00;;;;;;;0.83;0.73;;;22.30;99.90;;;;;;5014527;28;20460;-72
2022/09/08 11:23:48;;;;;;;2.70;0.60;;;22.30;99.90;;;;;;5020668;28;20524;-72
2022/09/08 11:26:45;;;;;;;1.30;0.60;;;22.50;99.90;;;;;;5010486;28;20985;-72
2022/09/08 11:29:16;;;;;;;3.10;0.60;;;22.50;99.90;;;;;;5004772;28;20911;-72
2022/09/08 11:31:57;;;;;;;3.47;0.60;;;22.80;99.90;;;;;;5013279;28;20559;-73
2022/09/08 11:34:22;;;;;;;2.40;0.70;;;22.90;99.90;;;;;;5001881;28;20528;-72
2022/09/08 11:37:21;;;;;;;1.60;0.70;;;23.10;99.90;;;;;;5008113;28;20599;-73
2022/09/08 11:40:21;;;;;;;1.03;0.60;;;23.00;99.90;;;;;;5013978;28;20571;-72
2022/09/08 11:43:11;;;;;;;3.83;0.60;;;22.80;99.90;;;;;;5013650;28;20481;-72
2022/09/08 11:45:56;;;;;;;1.23;0.60;;;22.40;99.90;;;;;;5020304;28;20432;-72
2022/09/08 11:48:46;;;;;;;1.00;0.67;;;22.20;99.90;;;;;;5019372;28;20440;-72
2022/09/08 11:51:35;;;;;;;1.43;0.70;;;22.00;99.90;;;;;;4998919;28;20531;-73
2022/09/08 11:54:42;;;;;;;1.47;0.63;;;22.50;99.90;;;;;;5012472;28;20436;-74
2022/09/08 11:57:23;;;;;;;1.73;0.70;;;23.20;99.90;;;;;;5010272;28;20441;-71
2022/09/08 12:00:03;;;;;;;1.20;0.60;;;24.00;99.90;;;;;;5021381;28;20933;-73
2022/09/08 12:03:07;;;;;;;5.17;0.70;;;24.60;99.90;;;;;;5011378;28;20509;-73
2022/09/08 12:06:09;;;;;;;3.90;0.83;;;25.00;99.90;;;;;;5016653;28;20523;-72
2022/09/08 12:09:21;;;;;;;3.63;1.00;;;24.80;99.90;;;;;;5011551;28;20431;-72
2022/09/08 12:11:55;;;;;;;1.77;0.60;;;24.30;99.90;;;;;;5010462;28;21009;-72
2022/09/08 12:14:38;;;;;;;1.50;0.70;;;24.10;99.90;;;;;;5013907;28;20454;-72
2022/09/08 12:17:23;;;;;;;4.30;1.00;;;23.70;99.90;;;;;;5006889;28;20841;-73
2022/09/08 12:20:00;;;;;;;1.00;0.50;;;23.40;99.90;;;;;;5010632;28;20540;-73
2022/09/08 12:23:03;;;;;;;2.07;0.90;;;23.10;99.90;;;;;;5012187;28;21020;-70
2022/09/08 12:26:02;;;;;;;3.73;0.60;;;23.40;99.90;;;;;;5012085;28;20503;-71
2022/09/08 12:28:37;;;;;;;1.03;0.60;;;24.00;99.90;;;;;;5013492;28;20439;-72
2022/09/08 12:31:31;;;;;;;3.17;0.60;;;24.40;99.90;;;;;;5018666;28;20464;-72
2022/09/08 12:34:27;;;;;;;1.77;0.83;;;25.00;99.90;;;;;;5013851;28;20479;-72
2022/09/08 12:37:06;;;;;;;1.20;0.60;;;25.30;99.90;;;;;;5017502;28;20468;-73
2022/09/08 12:40:16;;;;;;;1.20;0.50;;;25.20;99.90;;;;;;4999018;28;20778;-71
2022/09/08 12:42:42;;;;;;;3.40;0.87;;;25.00;99.90;;;;;;5007019;28;20581;-72
2022/09/08 12:46:05;;;;;;;1.70;0.50;;;24.50;99.90;;;;;;5013406;28;20997;-71
2022/09/08 12:48:36;;;;;;;1.33;0.93;;;24.10;99.90;;;;;;4961130;28;20197;-72
2022/09/08 12:51:34;;;;;;;2.33;0.60;;;24.00;99.90;;;;;;4965904;28;20494;-71
2022/09/08 12:54:26;;;;;;;2.03;0.80;;;24.10;99.90;;;;;;5007394;28;20864;-73
2022/09/08 12:57:10;;;;;;;2.70;0.97;;;24.00;99.90;;;;;;5016448;28;20468;-73
2022/09/08 13:00:01;;;;;;;1.07;0.70;;;24.20;99.90;;;;;;5010295;28;20442;-74
2022/09/08 13:02:57;;;;;;;1.53;0.70;;;23.90;99.90;;;;;;5012703;28;20508;-71
2022/09/08 13:05:43;;;;;;;2.70;0.60;;;23.70;99.90;;;;;;5012771;28;20500;-74
2022/09/08 13:08:25;;;;;;;1.07;0.60;;;23.50;99.90;;;;;;4997287;28;20434;-71
2022/09/08 13:11:01;;;;;;;1.90;0.60;;;23.30;99.90;;;;;;5005248;28;20425;-73
2022/09/08 13:13:31;;;;;;;1.53;1.00;;;23.20;99.90;;;;;;5013720;28;20957;-72
2022/09/08 13:16:08;;;;;;;1.00;0.50;;;23.20;99.90;;;;;;5015500;28;20747;-72
2022/09/08 13:18:53;;;;;;;0.90;0.60;;;23.20;99.90;;;;;;5015779;28;20440;-76
2022/09/08 13:21:18;;;;;;;1.73;0.63;;;23.40;99.90;;;;;;5013277;28;20491;-73
2022/09/08 13:23:53;;;;;;;2.00;0.60;;;23.60;99.90;;;;;;5011857;28;20417;-70
2022/09/08 13:26:52;;;;;;;2.67;0.70;;;23.80;99.90;;;;;;5013430;28;20189;-72
2022/09/08 13:29:43;;;;;;;1.10;0.70;;;23.80;99.90;;;;;;5002217;28;20451;-72
2022/09/08 13:32:27;;;;;;;1.90;0.50;;;23.50;99.90;;;;;;5015324;28;20487;-73
2022/09/08 13:35:30;;;;;;;3.43;0.70;;;23.30;99.90;;;;;;5016917;28;20852;-72
2022/09/08 13:38:39;;;;;;;1.57;0.70;;;23.10;99.90;;;;;;5014716;28;20519;-72
2022/09/08 13:41:35;;;;;;;1.10;0.60;;;23.10;99.90;;;;;;5010555;28;20457;-72
2022/09/08 13:44:40;;;;;;;4.73;0.70;;;23.20;99.90;;;;;;5011435;28;20803;-72
2022/09/08 13:47:34;;;;;;;4.33;0.90;;;23.40;99.90;;;;;;5012588;28;20460;-72
2022/09/08 13:50:23;;;;;;;1.03;0.60;;;23.60;99.90;;;;;;5012772;28;20496;-73
2022/09/08 13:53:10;;;;;;;1.57;0.80;;;23.70;99.90;;;;;;5001441;28;20473;-74
2022/09/08 13:55:48;;;;;;;1.00;0.50;;;23.80;99.90;;;;;;5009262;28;20452;-73
2022/09/08 13:58:44;;;;;;;1.37;0.90;;;23.80;99.90;;;;;;5013590;28;20464;-72
2022/09/08 14:01:27;;;;;;;2.40;0.60;;;23.80;99.90;;;;;;5018599;28;20448;-74
2022/09/08 14:04:13;;;;;;;2.23;0.60;;;23.50;99.90;;;;;;5011066;28;20413;-74
2022/09/08 14:06:51;;;;;;;2.93;0.80;;;23.50;99.90;;;;;;5015030;28;21014;-73
2022/09/08 14:09:28;;;;;;;1.80;0.60;;;23.50;99.90;;;;;;5014477;28;20437;-73
2022/09/08 14:12:38;;;;;;;1.10;0.40;;;23.70;99.90;;;;;;5017013;28;21508;-73
2022/09/08 14:15:10;;;;;;;0.83;0.60;;;23.70;99.90;;;;;;4991680;28;20541;-74
2022/09/08 14:18:11;;;;;;;7.83;0.83;;;23.70;99.90;;;;;;5015047;28;20791;-74
2022/09/08 14:20:47;;;;;;;1.13;0.60;;;23.70;99.90;;;;;;5014341;28;20516;-73
2022/09/08 14:23:50;;;;;;;1.07;0.63;;;23.60;99.90;;;;;;5013656;28;21710;-73
2022/09/08 14:26:19;;;;;;;2.03;0.60;;;23.40;99.90;;;;;;5021946;28;20452;-73
2022/09/08 14:29:11;;;;;;;0.87;0.60;;;23.30;99.90;;;;;;5011037;28;20491;-72
2022/09/08 14:31:42;;;;;;;5.03;0.80;;;23.20;99.90;;;;;;5012643;28;20464;-73
2022/09/08 14:34:33;;;;;;;2.47;1.23;;;23.10;99.90;;;;;;5016253;28;20436;-74
2022/09/08 14:37:01;;;;;;;1.27;0.73;;;22.90;99.90;;;;;;5001484;28;20789;-74
2022/09/08 14:39:30;;;;;;;1.27;0.70;;;22.80;99.90;;;;;;5001637;28;20425;-73
2022/09/08 14:42:11;;;;;;;2.03;1.57;;;22.90;99.90;;;;;;5018296;28;20515;-76
2022/09/08 14:44:48;;;;;;;5.17;4.50;;;23.00;99.90;;;;;;5025221;28;20751;-73
2022/09/08 14:47:30;;;;;;;3.10;1.40;;;23.00;99.90;;;;;;5002111;28;20421;-73
2022/09/08 14:50:25;;;;;;;4.40;1.80;;;23.00;99.90;;;;;;5012278;28;20436;-73
2022/09/08 14:52:57;;;;;;;0.90;0.80;;;22.80;99.90;;;;;;5007474;28;20433;-73
2022/09/08 14:55:34;;;;;;;0.53;0.53;;;22.90;99.90;;;;;;5013892;28;20421;-76
2022/09/08 14:58:38;;;;;;;1.70;0.60;;;22.90;99.90;;;;;;5019036;28;20439;-73
2022/09/08 15:01:22;;;;;;;1.00;0.70;;;23.00;99.90;;;;;;5015793;28;20531;-73
2022/09/08 15:04:04;;;;;;;2.87;0.70;;;23.10;99.90;;;;;;5017122;28;20556;-74
2022/09/08 15:06:45;;;;;;;1.83;0.63;;;23.00;99.90;;;;;;5012503;28;20429;-74
2022/09/08 15:09:19;;;;;;;3.50;0.60;;;22.90;99.90;;;;;;5013499;28;20426;-74
2022/09/08 15:11:50;;;;;;;1.93;1.70;;;22.80;99.90;;;;;;5007378;28;20461;-73